Time;durP1;ratioP1;P1;durP2;ratioP2;P2;SDS_P1;SDS_P2;PMS_P1;PMS_P2;Temp;Humidity;BMP_temperature;BMP_pressure;BME280_temperature;BME280_humidity;BME280_pressure;Samples;Min_cycle;Max_cycle;Signal;HPM_P1;HPM_P2
2022/01/18 00:00:28;;;;;;;331.80;107.40;;;;;;;10.80;100.00;99335.53;5046787;28;20136;-66
2022/01/18 00:03:10;;;;;;;317.67;102.60;;;;;;;10.83;100.00;99341.50;5048144;28;20160;-66
2022/01/18 00:05:59;;;;;;;319.63;101.60;;;;;;;10.82;100.00;99339.78;5038262;28;20156;-66
2022/01/18 00:08:41;;;;;;;313.10;105.32;;;;;;;10.81;100.00;99348.41;5048497;28;20144;-66
2022/01/18 00:11:38;;;;;;;346.52;106.13;;;;;;;10.80;100.00;99346.69;5032480;28;20045;-67
2022/01/18 00:14:26;;;;;;;332.35;105.28;;;;;;;10.85;100.00;99356.94;5045824;28;20045;-66
2022/01/18 00:17:28;;;;;;;323.60;100.90;;;;;;;10.86;100.00;99356.88;5037847;28;20789;-66
2022/01/18 00:20:17;;;;;;;326.15;102.75;;;;;;;10.86;100.00;99364.59;5045525;28;20106;-66
2022/01/18 00:23:05;;;;;;;340.27;106.45;;;;;;;10.86;100.00;99362.03;5027495;28;20724;-66
2022/01/18 00:25:51;;;;;;;338.70;106.53;;;;;;;10.89;100.00;99361.97;5048109;28;20118;-66
2022/01/18 00:28:51;;;;;;;332.15;104.70;;;;;;;10.91;100.00;99349.06;5048301;28;20531;-66
2022/01/18 00:31:58;;;;;;;334.55;105.85;;;;;;;10.89;100.00;99343.09;5047059;28;20056;-66
2022/01/18 00:34:51;;;;;;;321.10;104.03;;;;;;;10.95;100.00;99325.75;5048179;28;20049;-67
2022/01/18 00:37:38;;;;;;;306.87;104.40;;;;;;;10.90;100.00;99330.16;5030272;28;20060;-66
2022/01/18 00:40:28;;;;;;;334.75;104.07;;;;;;;10.92;100.00;99333.56;5047388;28;20061;-66
2022/01/18 00:43:10;;;;;;;322.15;103.20;;;;;;;10.87;100.00;99342.25;5047721;28;20048;-67
2022/01/18 00:46:04;;;;;;;;;;;;;;;10.82;100.00;99337.22;5046224;28;20139;-66
2022/01/18 00:48:46;;;;;;;311.60;102.95;;;;;;;10.84;100.00;99330.31;5046778;28;19933;-66
2022/01/18 00:51:42;;;;;;;342.77;108.15;;;;;;;10.98;100.00;99323.13;5029089;28;20056;-66
2022/01/18 00:54:37;;;;;;;324.80;103.88;;;;;;;10.87;100.00;99324.22;5029374;28;20057;-67
2022/01/18 00:57:27;;;;;;;314.15;104.72;;;;;;;10.89;100.00;99330.19;5046683;28;20502;-66
2022/01/18 01:00:09;;;;;;;333.48;103.95;;;;;;;10.86;100.00;99333.69;5048321;28;20369;-65
2022/01/18 01:02:58;;;;;;;306.25;105.55;;;;;;;10.82;100.00;99341.50;5027826;28;20067;-67
2022/01/18 01:05:41;;;;;;;312.73;100.18;;;;;;;10.83;100.00;99341.50;5027767;28;20045;-66
2022/01/18 01:08:29;;;;;;;316.40;104.18;;;;;;;10.81;100.00;99345.81;5032396;28;20044;-66
2022/01/18 01:11:12;;;;;;;324.95;103.22;;;;;;;10.81;100.00;99348.41;5047037;28;20090;-67
2022/01/18 01:14:06;;;;;;;337.30;106.32;;;;;;;10.82;100.00;99355.25;5039641;28;20580;-66
2022/01/18 01:16:57;;;;;;;313.38;104.82;;;;;;;10.85;100.00;99359.50;5045631;28;20056;-67
2022/01/18 01:33:16;;;;;;;361.33;120.45;;;;;;;10.72;100.00;99340.84;5029035;28;20056;-66
2022/01/18 01:35:14;;;;;;;339.75;115.68;;;;;;;10.75;100.00;99340.78;5021082;28;20495;-67
2022/01/18 01:47:03;;;;;;;352.15;118.43;;;;;;;10.72;100.00;99328.81;5042906;28;20049;-66
2022/01/18 01:49:48;;;;;;;355.23;115.90;;;;;;;10.72;100.00;99331.38;5027358;28;20826;-67
2022/01/18 01:52:36;;;;;;;334.30;114.82;;;;;;;10.69;100.00;99328.03;5048828;28;20041;-66
2022/01/18 01:55:20;;;;;;;357.05;116.75;;;;;;;10.76;100.00;99329.63;5044030;28;20056;-67
2022/01/18 01:58:09;;;;;;;342.00;117.88;;;;;;;10.77;100.00;99336.47;5044877;28;20048;-66
2022/01/18 02:00:54;;;;;;;372.50;121.20;;;;;;;10.68;100.00;99341.81;5044795;28;20057;-66
2022/01/18 02:03:43;;;;;;;366.60;119.63;;;;;;;10.73;100.00;99339.97;5025987;28;20119;-65
2022/01/18 02:06:25;;;;;;;386.00;126.68;;;;;;;10.73;100.00;99340.81;5046930;28;20045;-65
2022/01/18 02:09:18;;;;;;;371.27;120.70;;;;;;;10.71;100.00;99341.72;5045966;28;20068;-65
2022/01/18 02:12:01;;;;;;;353.25;120.40;;;;;;;10.78;100.00;99345.88;5054603;28;20103;-65
2022/01/18 02:14:59;;;;;;;367.47;121.63;;;;;;;10.79;100.00;99345.00;5044596;28;20048;-64
2022/01/18 02:23:52;;;;;;;382.00;118.50;;;;;;;10.63;100.00;99328.16;5044111;28;20148;-65
2022/01/18 02:26:41;;;;;;;344.98;121.32;;;;;;;10.66;100.00;99328.09;5043103;28;20063;-65
2022/01/18 02:29:30;;;;;;;375.80;122.85;;;;;;;10.66;100.00;99338.41;5043178;28;20593;-64
2022/01/18 02:32:18;;;;;;;376.70;122.13;;;;;;;10.83;100.00;99335.50;5042511;28;20384;-65
2022/01/18 02:35:00;;;;;;;388.20;124.53;;;;;;;10.82;100.00;99338.94;5044950;28;20261;-67
2022/01/18 02:37:49;;;;;;;380.85;126.07;;;;;;;10.72;100.00;99339.13;5043943;28;20044;-64
2022/01/18 02:40:33;;;;;;;373.65;122.40;;;;;;;10.70;100.00;99345.19;5044616;28;20045;-64
2022/01/18 02:46:22;;;;;;;377.90;122.78;;;;;;;10.69;100.00;99352.09;5041830;28;20581;-66
2022/01/18 02:49:12;;;;;;;383.02;123.22;;;;;;;10.68;100.00;99358.13;5044417;28;20049;-65
2022/01/18 02:51:57;;;;;;;387.52;127.53;;;;;;;10.77;100.00;99357.09;5027001;28;20067;-65
2022/01/18 02:54:46;;;;;;;381.08;124.80;;;;;;;10.80;100.00;99369.88;5044734;28;20072;-65
2022/01/18 02:57:27;;;;;;;381.60;123.80;;;;;;;10.85;100.00;99374.97;5042536;28;20689;-67
2022/01/18 03:00:27;;;;;;;392.75;125.72;;;;;;;10.86;100.00;99374.06;5041026;28;20045;-65
2022/01/18 03:03:24;;;;;;;382.63;120.95;;;;;;;10.87;100.00;99368.03;5041297;28;20124;-67
2022/01/18 03:06:01;;;;;;;383.92;124.05;;;;;;;10.87;100.00;99357.72;5026751;28;20064;-66
2022/01/18 03:08:49;;;;;;;389.58;124.18;;;;;;;10.88;100.00;99374.88;5027218;28;20041;-66
2022/01/18 03:11:32;;;;;;;382.38;123.07;;;;;;;10.85;100.00;99368.09;5042974;28;20049;-66
2022/01/18 03:14:21;;;;;;;361.92;122.22;;;;;;;10.89;100.00;99380.03;5041692;28;20114;-66
2022/01/18 03:17:03;;;;;;;392.60;122.70;;;;;;;10.97;100.00;99395.34;5048505;28;20045;-66
2022/01/18 03:19:58;;;;;;;385.75;123.53;;;;;;;10.95;100.00;99392.78;5048754;28;20049;-64
2022/01/18 03:22:33;;;;;;;364.33;121.82;;;;;;;10.96;100.00;99389.31;5028458;28;20143;-65
2022/01/18 03:28:07;;;;;;;395.38;125.13;;;;;;;10.95;100.00;99395.34;5034403;28;20142;-65
2022/01/18 03:31:03;;;;;;;381.38;121.68;;;;;;;11.01;100.00;99392.69;5047316;28;20064;-65
2022/01/18 03:33:38;;;;;;;373.58;122.45;;;;;;;11.05;100.00;99389.16;5044225;28;20055;-65
2022/01/18 03:36:34;;;;;;;377.33;121.93;;;;;;;11.07;100.00;99402.84;5050359;28;20048;-64
2022/01/18 03:39:10;;;;;;;375.83;123.13;;;;;;;11.17;100.00;99410.41;5033278;28;20376;-65
2022/01/18 03:42:28;;;;;;;400.20;125.63;;;;;;;11.12;100.00;99410.50;5048575;28;20423;-65
2022/01/18 03:45:03;;;;;;;397.70;126.20;;;;;;;11.11;100.00;99430.25;5038493;28;20377;-65
2022/01/18 03:48:04;;;;;;;371.80;122.45;;;;;;;11.27;100.00;99438.53;5052324;28;20165;-63
2022/01/18 03:50:40;;;;;;;384.38;126.32;;;;;;;11.32;100.00;99436.72;5048379;28;20037;-63
2022/01/18 03:53:35;;;;;;;388.23;122.70;;;;;;;11.34;100.00;99429.78;5028741;28;20045;-64
2022/01/18 03:56:10;;;;;;;372.75;125.07;;;;;;;11.34;100.00;99429.78;5028367;28;20057;-64
2022/01/18 03:58:59;;;;;;;378.98;126.65;;;;;;;11.36;100.00;99437.50;5038005;28;20068;-64
2022/01/18 04:01:52;;;;;;;374.50;126.45;;;;;;;11.34;100.00;99442.69;5045436;28;20122;-64
2022/01/18 04:04:48;;;;;;;379.48;128.60;;;;;;;11.46;100.00;99444.16;5044228;28;20136;-63
2022/01/18 04:07:23;;;;;;;389.65;127.30;;;;;;;11.37;100.00;99429.72;5045158;28;20053;-62
2022/01/18 04:10:19;;;;;;;387.38;128.52;;;;;;;11.36;100.00;99442.66;5044284;28;20747;-64
2022/01/18 04:12:56;;;;;;;373.65;127.82;;;;;;;11.43;100.00;99441.66;5045688;28;20094;-64
2022/01/18 04:15:48;;;;;;;372.10;127.25;;;;;;;11.47;100.00;99427.81;5043460;28;20360;-64
2022/01/18 04:18:56;;;;;;;377.52;130.25;;;;;;;11.58;100.00;99430.13;5045924;28;20084;-64
2022/01/18 04:28:02;;;;;;;354.77;119.60;;;;;;;11.61;100.00;99441.25;5044147;28;20080;-64
2022/01/18 04:30:50;;;;;;;356.58;120.88;;;;;;;11.75;100.00;99443.56;5043509;28;20396;-64
2022/01/18 04:33:34;;;;;;;366.05;121.43;;;;;;;11.84;100.00;99448.50;5046291;28;20049;-64
2022/01/18 04:36:23;;;;;;;353.10;119.88;;;;;;;11.93;100.00;99437.13;5044000;28;20922;-64
2022/01/18 04:39:05;;;;;;;352.63;117.07;;;;;;;11.93;100.00;99435.41;5042468;28;20049;-64
2022/01/18 04:41:54;;;;;;;344.63;120.07;;;;;;;11.90;100.00;99440.63;5042241;28;20065;-64
2022/01/18 04:50:47;;;;;;;331.88;114.72;;;;;;;11.99;100.00;99442.13;5045292;28;20198;-64
2022/01/18 04:53:54;;;;;;;340.88;117.93;;;;;;;12.06;100.00;99444.53;5045260;28;20059;-64
2022/01/18 04:59:25;;;;;;;344.45;116.35;;;;;;;12.17;100.00;99439.13;5048820;28;20048;-64
2022/01/18 05:02:07;;;;;;;337.13;117.35;;;;;;;12.25;100.00;99442.38;5044025;28;20114;-64
2022/01/18 05:05:02;;;;;;;340.40;116.40;;;;;;;12.31;100.00;99449.13;5036559;28;20053;-64
2022/01/18 05:07:38;;;;;;;324.15;114.60;;;;;;;12.25;100.00;99450.97;5043737;28;20749;-64
2022/01/18 05:10:29;;;;;;;347.08;114.75;;;;;;;12.35;100.00;99446.44;5043671;28;20480;-64
2022/01/18 05:13:29;;;;;;;335.90;115.80;;;;;;;12.61;100.00;99453.53;5045823;28;20167;-64
2022/01/18 05:19:14;;;;;;;338.77;114.57;;;;;;;12.71;100.00;99448.94;5046748;28;20052;-64
2022/01/18 05:24:53;;;;;;;334.42;112.55;;;;;;;12.78;100.00;99441.00;5041961;28;20538;-65
2022/01/18 05:27:35;;;;;;;322.77;110.35;;;;;;;12.96;100.00;99434.47;5017421;28;20042;-65
2022/01/18 05:30:23;;;;;;;304.52;111.10;;;;;;;13.06;100.00;99441.09;4997390;28;20113;-65
2022/01/18 05:33:06;;;;;;;336.52;112.03;;;;;;;13.25;100.00;99452.63;5008463;28;20139;-65
2022/01/18 05:35:58;;;;;;;338.15;114.18;;;;;;;13.25;100.00;99464.75;4999145;28;20115;-65
2022/01/18 05:38:42;;;;;;;326.45;115.35;;;;;;;13.24;100.00;99461.31;5018699;28;20366;-65
2022/01/18 05:41:24;;;;;;;324.25;113.30;;;;;;;13.27;100.00;99457.78;5002430;28;20052;-65
2022/01/18 05:44:14;;;;;;;339.77;115.88;;;;;;;13.25;100.00;99459.59;5025455;28;20571;-65
2022/01/18 05:46:56;;;;;;;317.85;115.47;;;;;;;13.31;100.00;99472.34;5046327;28;20103;-64
2022/01/18 05:49:46;;;;;;;318.08;115.00;;;;;;;13.34;100.00;99465.31;5023735;28;20139;-64
2022/01/18 05:52:28;;;;;;;317.42;114.20;;;;;;;13.39;100.00;99468.66;5034872;28;20139;-65
2022/01/18 05:55:17;;;;;;;331.52;114.15;;;;;;;13.39;100.00;99471.22;5036085;28;20551;-64
2022/01/18 05:57:59;;;;;;;327.60;115.32;;;;;;;13.46;100.00;99478.81;5044792;28;20052;-64
2022/01/18 06:00:55;;;;;;;341.52;122.38;;;;;;;13.43;100.00;99476.31;5032942;28;20099;-61
2022/01/18 06:03:51;;;;;;;348.25;119.35;;;;;;;13.57;100.00;99475.00;5025302;28;20320;-65
2022/01/18 06:06:53;;;;;;;356.87;120.87;;;;;;;13.72;100.00;99459.03;5040133;28;20368;-62
2022/01/18 06:09:49;;;;;;;353.08;121.72;;;;;;;13.65;100.00;99451.47;5034110;28;20372;-61
2022/01/18 06:12:27;;;;;;;352.65;123.10;;;;;;;13.70;100.00;99450.47;5039265;28;20381;-61
2022/01/18 06:15:16;;;;;;;349.08;125.45;;;;;;;13.78;100.00;99448.50;5037065;28;20048;-62
2022/01/18 06:18:05;;;;;;;363.27;129.20;;;;;;;13.75;100.00;99439.94;5043221;28;20110;-62
2022/01/18 06:20:46;;;;;;;380.17;135.82;;;;;;;13.56;100.00;99437.09;5020085;28;20099;-64
2022/01/18 06:23:38;;;;;;;380.92;129.32;;;;;;;13.58;100.00;99443.06;5043224;28;20098;-64
2022/01/18 06:26:19;;;;;;;375.13;132.73;;;;;;;13.83;100.00;99431.94;5039528;28;20352;-64
2022/01/18 06:29:09;;;;;;;380.42;133.27;;;;;;;13.66;100.00;99429.88;5039580;28;21559;-59
2022/01/18 06:31:52;;;;;;;389.27;140.63;;;;;;;13.75;100.00;99442.53;5040864;28;20372;-64
2022/01/18 06:34:41;;;;;;;383.85;139.65;;;;;;;13.88;100.00;99438.69;5042942;28;20048;-62
2022/01/18 06:37:31;;;;;;;382.17;135.88;;;;;;;14.00;100.00;99438.31;5019670;28;20041;-62
2022/01/18 06:40:32;;;;;;;386.52;135.15;;;;;;;14.00;100.00;99433.13;5038331;28;20047;-63
2022/01/18 06:43:27;;;;;;;381.80;137.63;;;;;;;14.17;100.00;99432.59;5044229;28;20077;-62
2022/01/18 06:46:08;;;;;;;383.67;139.80;;;;;;;14.13;100.00;99434.41;5040102;28;20110;-63
2022/01/18 06:49:06;;;;;;;378.92;130.20;;;;;;;13.95;100.00;99418.63;5041210;28;20278;-62
2022/01/18 06:51:47;;;;;;;357.70;129.98;;;;;;;14.11;100.00;99410.31;5010059;28;20080;-63
2022/01/18 06:54:37;;;;;;;347.58;127.88;;;;;;;14.07;100.00;99407.84;5043106;28;20126;-63
2022/01/18 06:57:20;;;;;;;360.48;126.75;;;;;;;14.35;100.00;99413.00;5025987;28;20056;-62
2022/01/18 07:00:12;;;;;;;338.30;124.80;;;;;;;14.52;100.00;99396.00;5022066;28;20045;-62
2022/01/18 07:03:09;;;;;;;347.38;121.72;;;;;;;14.27;100.00;99378.72;5041210;28;20076;-63
2022/01/18 07:06:04;;;;;;;355.08;125.68;;;;;;;14.44;100.00;99376.44;5040703;28;20057;-62
2022/01/18 07:08:39;;;;;;;353.58;127.28;;;;;;;14.45;100.00;99368.56;5042244;28;20045;-63
2022/01/18 07:11:34;;;;;;;362.30;128.45;;;;;;;14.58;100.00;99358.63;5042670;28;20059;-63
2022/01/18 07:14:09;;;;;;;379.63;130.80;;;;;;;14.58;100.00;99348.25;5026911;28;20041;-63
2022/01/18 07:17:05;;;;;;;384.30;134.40;;;;;;;14.60;100.00;99340.44;5043300;28;20067;-63
2022/01/18 07:19:41;;;;;;;368.23;134.00;;;;;;;14.65;100.00;99339.34;5043842;28;20049;-63
2022/01/18 07:22:32;;;;;;;379.00;132.23;;;;;;;14.65;100.00;99329.00;5042451;28;20049;-64
2022/01/18 07:25:17;;;;;;;365.63;133.80;;;;;;;14.81;100.00;99316.31;5023811;28;20168;-62
2022/01/18 07:28:05;;;;;;;378.55;135.82;;;;;;;14.74;100.00;99318.28;5043116;28;20052;-63
2022/01/18 07:30:48;;;;;;;379.83;131.07;;;;;;;14.79;100.00;99320.69;5023090;28;20059;-62
2022/01/18 07:33:39;;;;;;;385.58;137.00;;;;;;;14.91;100.00;99310.72;5039270;28;20060;-63
2022/01/18 07:36:21;;;;;;;385.15;137.30;;;;;;;15.04;100.00;99303.31;5038688;28;20106;-63
2022/01/18 07:39:17;;;;;;;361.30;134.50;;;;;;;15.00;100.00;99300.91;5041919;28;20045;-63
2022/01/18 07:41:52;;;;;;;345.33;123.10;;;;;;;15.29;100.00;99295.44;5043623;28;20485;-64
2022/01/18 07:44:40;;;;;;;341.92;120.15;;;;;;;14.99;100.00;99287.09;5042917;28;20060;-63
2022/01/18 07:47:23;;;;;;;332.33;116.82;;;;;;;15.00;100.00;99291.38;5040747;28;20145;-64
2022/01/18 07:50:04;;;;;;;334.05;123.75;;;;;;;15.26;100.00;99290.34;5042672;28;20048;-64
2022/01/18 07:52:52;;;;;;;353.30;126.93;;;;;;;15.41;100.00;99289.72;5044305;28;20056;-64
2022/01/18 07:55:34;;;;;;;394.10;134.85;;;;;;;15.14;100.00;99280.47;5023291;28;20057;-65
2022/01/18 07:58:22;;;;;;;336.17;128.77;;;;;;;15.33;100.00;99271.88;5042067;28;20114;-65
2022/01/18 08:01:10;;;;;;;346.55;131.38;;;;;;;15.03;100.00;99275.66;5019923;28;20053;-65
2022/01/18 08:04:00;;;;;;;369.85;131.30;;;;;;;15.01;100.00;99284.41;5045147;28;20045;-65
2022/01/18 08:06:49;;;;;;;364.10;134.18;;;;;;;14.97;100.00;99288.88;5028086;28;20049;-65
2022/01/18 08:09:31;;;;;;;378.90;137.13;;;;;;;14.97;100.00;99282.84;5027994;28;20052;-65
2022/01/18 08:12:26;;;;;;;376.40;136.05;;;;;;;14.98;100.00;99293.19;5040858;28;20074;-64
2022/01/18 08:15:12;;;;;;;369.60;135.70;;;;;;;14.97;100.00;99294.06;5022110;28;20048;-65
2022/01/18 08:18:06;;;;;;;385.73;134.52;;;;;;;15.05;100.00;99286.00;5045390;28;20048;-65
2022/01/18 08:20:47;;;;;;;360.73;131.43;;;;;;;14.82;100.00;99273.91;5045800;28;20045;-65
2022/01/18 08:23:35;;;;;;;367.63;132.85;;;;;;;14.79;100.00;99277.44;5046071;28;20092;-65
2022/01/18 08:26:31;;;;;;;382.02;135.95;;;;;;;15.01;100.00;99271.44;5043599;28;20045;-64
2022/01/18 08:29:08;;;;;;;379.95;134.27;;;;;;;14.98;100.00;99258.59;5039184;28;20053;-65
2022/01/18 08:32:17;;;;;;;369.15;132.55;;;;;;;14.98;100.00;99258.59;5043182;28;20195;-63
2022/01/18 08:34:58;;;;;;;382.55;132.10;;;;;;;15.01;100.00;99255.88;5044421;28;20079;-62
2022/01/18 08:37:46;;;;;;;378.50;132.27;;;;;;;15.19;100.00;99252.56;5025829;28;20052;-63
2022/01/18 08:40:27;;;;;;;374.92;129.65;;;;;;;15.25;100.00;99249.72;5044829;28;20728;-65
2022/01/18 08:43:17;;;;;;;361.23;126.22;;;;;;;15.27;100.00;99245.31;5044531;28;20036;-65
2022/01/18 08:46:00;;;;;;;341.65;124.65;;;;;;;15.36;100.00;99244.09;5043099;28;20078;-65
2022/01/18 08:48:49;;;;;;;356.35;127.53;;;;;;;15.48;100.00;99234.09;5043146;28;20049;-64
2022/01/18 08:51:32;;;;;;;360.53;131.20;;;;;;;15.26;100.00;99222.84;5027242;28;20045;-65
2022/01/18 08:54:13;;;;;;;346.50;125.15;;;;;;;15.20;100.00;99213.56;5041585;28;20056;-65
2022/01/18 08:57:02;;;;;;;325.73;119.55;;;;;;;15.15;100.00;99214.69;5023435;28;20065;-65
2022/01/18 08:59:44;;;;;;;343.00;124.55;;;;;;;15.29;100.00;99204.56;5024647;28;20180;-68
2022/01/18 09:02:40;;;;;;;349.17;126.47;;;;;;;15.23;100.00;99207.44;5035895;28;20096;-66
2022/01/18 09:05:15;;;;;;;336.38;124.38;;;;;;;15.27;100.00;99194.25;5038460;28;20070;-67
2022/01/18 09:08:05;;;;;;;339.85;124.63;;;;;;;15.16;100.00;99190.41;5037395;28;20059;-66
2022/01/18 09:10:47;;;;;;;340.85;123.05;;;;;;;15.01;100.00;99186.66;5042510;28;20057;-66
2022/01/18 09:13:36;;;;;;;360.02;129.68;;;;;;;14.92;100.00;99182.66;5024252;28;20144;-68
2022/01/18 09:16:19;;;;;;;338.10;122.68;;;;;;;15.07;100.00;99175.22;5034486;28;20138;-68
2022/01/18 09:19:09;;;;;;;328.67;118.85;;;;;;;14.99;100.00;99159.94;5019728;28;20063;-67
2022/01/18 09:21:52;;;;;;;339.17;123.20;;;;;;;15.09;100.00;99157.81;5027439;28;20047;-68
2022/01/18 09:24:42;;;;;;;338.42;121.80;;;;;;;14.77;100.00;99146.97;5009162;28;20753;-67
2022/01/18 09:27:37;;;;;;;355.65;126.82;;;;;;;14.69;100.00;99141.22;5040430;28;20119;-67
2022/01/18 09:30:14;;;;;;;347.23;125.07;;;;;;;14.73;100.00;99135.03;5037810;28;20131;-67
2022/01/18 09:33:06;;;;;;;345.88;123.63;;;;;;;14.98;100.00;99136.66;5040902;28;20128;-67
2022/01/18 09:35:55;;;;;;;324.35;120.43;;;;;;;14.87;100.00;99137.91;5042193;28;20045;-68
2022/01/18 09:38:36;;;;;;;344.80;121.28;;;;;;;15.05;100.00;99125.13;5040930;28;20468;-68
2022/01/18 09:41:30;;;;;;;333.23;122.45;;;;;;;14.79;100.00;99129.59;5044630;28;20128;-67
2022/01/18 09:44:11;;;;;;;361.92;125.35;;;;;;;14.85;100.00;99131.94;5046249;28;20047;-68
2022/01/18 09:47:01;;;;;;;344.80;121.50;;;;;;;14.89;100.00;99123.16;5034088;28;20123;-67
2022/01/18 09:49:42;;;;;;;336.50;122.78;;;;;;;14.85;100.00;99121.56;5043211;28;20057;-68
2022/01/18 09:52:32;;;;;;;333.58;122.57;;;;;;;14.78;100.00;99127.06;5025592;28;20059;-68
2022/01/18 09:55:13;;;;;;;350.55;124.68;;;;;;;14.79;100.00;99119.22;5038314;28;20142;-68
2022/01/18 09:58:06;;;;;;;339.75;124.55;;;;;;;14.79;100.00;99118.38;5041973;28;20068;-68
2022/01/18 10:00:55;;;;;;;329.60;122.50;;;;;;;14.93;100.00;99113.47;5042604;28;20631;-67
2022/01/18 10:03:41;;;;;;;339.20;122.88;;;;;;;14.96;100.00;99104.72;5024459;28;20056;-67
2022/01/18 10:06:37;;;;;;;336.35;118.88;;;;;;;15.02;100.00;99104.47;5024274;28;20808;-67
2022/01/18 10:09:14;;;;;;;313.42;117.53;;;;;;;14.96;100.00;99107.31;5037782;28;20049;-68
2022/01/18 10:12:12;;;;;;;316.73;119.82;;;;;;;14.98;100.00;99092.56;5041134;28;20052;-67
2022/01/18 10:15:02;;;;;;;329.48;121.00;;;;;;;14.91;100.00;99082.44;5041238;28;20045;-67
2022/01/18 10:18:08;;;;;;;329.02;121.18;;;;;;;14.88;100.00;99076.50;5025355;28;20044;-69
2022/01/18 10:20:54;;;;;;;326.55;120.93;;;;;;;14.92;100.00;99093.66;5036824;28;20707;-68
2022/01/18 10:23:49;;;;;;;340.42;125.10;;;;;;;14.80;100.00;99079.41;5022342;28;20044;-69
2022/01/18 10:26:44;;;;;;;323.40;121.53;;;;;;;14.72;100.00;99075.44;5038002;28;20431;-68
2022/01/18 10:29:31;;;;;;;333.73;121.43;;;;;;;14.83;100.00;99081.91;5040877;28;20059;-65
2022/01/18 10:32:32;;;;;;;332.02;120.40;;;;;;;14.91;100.00;99076.41;5040883;28;20071;-68
2022/01/18 10:35:21;;;;;;;324.15;117.53;;;;;;;14.90;100.00;99078.16;5040028;28;20068;-67
2022/01/18 10:38:03;;;;;;;302.27;114.47;;;;;;;14.92;100.00;99063.34;5041634;28;20106;-67
2022/01/18 10:40:51;;;;;;;331.38;118.90;;;;;;;14.99;100.00;99068.28;5039367;28;20063;-68
2022/01/18 10:43:34;;;;;;;312.25;117.07;;;;;;;14.87;100.00;99074.81;5038466;28;20350;-67
2022/01/18 10:46:22;;;;;;;308.23;116.53;;;;;;;14.84;100.00;99070.63;5019404;28;20067;-67
2022/01/18 10:49:14;;;;;;;324.30;122.25;;;;;;;14.88;100.00;99084.28;5023516;28;20053;-66
2022/01/18 10:51:58;;;;;;;334.17;117.97;;;;;;;14.84;100.00;99081.00;5023603;28;20057;-67
2022/01/18 10:54:55;;;;;;;310.83;117.70;;;;;;;14.92;100.00;99075.50;5036128;28;20041;-67
2022/01/18 10:57:45;;;;;;;340.08;120.07;;;;;;;14.87;100.00;99067.88;5041926;28;20056;-67
2022/01/18 11:00:32;;;;;;;324.33;119.03;;;;;;;14.80;100.00;99061.25;5040128;28;20048;-68
2022/01/18 11:03:27;;;;;;;340.25;123.45;;;;;;;14.78;100.00;99051.84;5018003;28;20049;-67
2022/01/18 11:06:17;;;;;;;326.65;123.10;;;;;;;14.79;100.00;99049.19;5035597;28;20055;-68
2022/01/18 11:09:18;;;;;;;315.90;121.03;;;;;;;14.86;100.00;99042.84;5042272;28;20063;-66
2022/01/18 11:12:00;;;;;;;324.80;121.60;;;;;;;14.88;100.00;99038.44;5039362;28;20045;-67
2022/01/18 11:15:00;;;;;;;329.88;122.70;;;;;;;14.77;100.00;99030.25;5039814;28;20060;-68
2022/01/18 11:17:49;;;;;;;344.38;123.80;;;;;;;14.78;100.00;99037.13;5024682;28;20137;-68
2022/01/18 11:20:43;;;;;;;324.73;120.72;;;;;;;14.79;100.00;99025.84;5040758;28;20060;-68
2022/01/18 11:23:24;;;;;;;348.80;124.45;;;;;;;14.68;100.00;99030.66;5039874;28;21295;-68
2022/01/18 11:26:15;;;;;;;342.45;124.85;;;;;;;14.62;100.00;99012.72;5035972;28;20381;-68
2022/01/18 11:28:59;;;;;;;337.77;126.67;;;;;;;14.54;100.00;99002.69;5041110;28;20068;-68
2022/01/18 11:31:50;;;;;;;353.63;125.75;;;;;;;14.61;100.00;98999.81;5042517;28;20152;-69
2022/01/18 11:34:49;;;;;;;347.00;126.03;;;;;;;14.54;100.00;99007.03;5041207;28;20119;-68
2022/01/18 11:37:46;;;;;;;360.17;126.78;;;;;;;14.52;100.00;99011.44;5030845;28;20053;-68
2022/01/18 11:40:50;;;;;;;329.60;124.15;;;;;;;14.42;100.00;99025.69;5043796;28;20053;-67
2022/01/18 11:43:33;;;;;;;;;;;;;;;14.31;100.00;99025.22;5044822;28;20052;-66
2022/01/18 11:46:30;;;;;;;325.00;124.47;;;;;;;14.29;100.00;99012.31;5042719;28;19925;-66
2022/01/18 11:49:34;;;;;;;342.35;124.80;;;;;;;14.29;100.00;99019.25;5026851;28;20049;-68
2022/01/18 11:52:35;;;;;;;358.85;128.77;;;;;;;14.27;100.00;99000.34;5045827;28;20045;-67
2022/01/18 11:55:45;;;;;;;351.67;124.97;;;;;;;14.24;100.00;98982.31;5045716;28;20044;-67
2022/01/18 11:58:35;;;;;;;357.40;129.13;;;;;;;14.08;100.00;98989.84;5043984;28;20144;-66
2022/01/18 12:01:24;;;;;;;351.58;127.75;;;;;;;14.07;100.00;98985.56;5044163;28;20052;-67
2022/01/18 12:04:06;;;;;;;357.17;127.88;;;;;;;13.97;100.00;98981.63;5019338;28;20453;-67
2022/01/18 12:06:58;;;;;;;352.75;127.55;;;;;;;13.78;100.00;98979.78;5019509;28;20053;-66
2022/01/18 12:09:43;;;;;;;348.27;128.32;;;;;;;13.72;100.00;98976.59;5015760;28;20045;-67
2022/01/18 12:12:45;;;;;;;368.42;133.15;;;;;;;13.59;100.00;98985.69;5021792;28;20053;-67
2022/01/18 12:15:40;;;;;;;362.60;130.05;;;;;;;13.48;100.00;99000.78;5022359;28;20041;-67
2022/01/18 12:18:26;;;;;;;365.17;132.05;;;;;;;13.29;100.00;98996.28;5024158;28;20255;-65
2022/01/18 12:21:28;;;;;;;362.33;129.10;;;;;;;13.40;100.00;98999.34;5019179;28;20049;-66
2022/01/18 12:24:19;;;;;;;362.75;131.55;;;;;;;13.36;100.00;99004.66;5023367;28;20045;-63
2022/01/18 12:27:03;;;;;;;337.45;127.68;;;;;;;13.22;100.00;99012.06;5025717;28;20737;-66
2022/01/18 12:30:39;;;;;;;343.95;126.97;;;;;;;13.02;100.00;99012.72;5023382;28;20053;-68
2022/01/18 12:33:28;;;;;;;370.02;131.77;;;;;;;13.06;100.00;99014.31;5021540;28;20049;-67
2022/01/18 12:36:31;;;;;;;376.30;133.38;;;;;;;12.93;100.00;99021.63;5013921;28;20518;-67
2022/01/18 12:39:21;;;;;;;375.63;136.13;;;;;;;12.86;100.00;99021.91;5018461;28;20524;-68
2022/01/18 12:42:24;;;;;;;385.85;138.93;;;;;;;12.94;100.00;99027.66;5021886;28;20111;-63
2022/01/18 12:45:22;;;;;;;403.75;139.52;;;;;;;12.82;100.00;99028.09;5021335;28;20042;-65
2022/01/18 12:48:09;;;;;;;405.73;142.18;;;;;;;12.77;100.00;99027.41;5022038;28;20075;-68
2022/01/18 12:51:01;;;;;;;416.37;144.03;;;;;;;12.70;100.00;99037.06;5040549;28;20057;-67
2022/01/18 12:53:56;;;;;;;405.60;145.43;;;;;;;12.77;100.00;99032.56;5027432;28;20290;-67
2022/01/18 12:56:31;;;;;;;393.88;142.23;;;;;;;12.71;100.00;99043.09;5018779;28;20057;-67
2022/01/18 12:59:22;;;;;;;394.63;143.23;;;;;;;12.71;100.00;99043.09;5015660;28;20045;-68
2022/01/18 13:02:04;;;;;;;413.95;144.70;;;;;;;12.70;100.00;99054.31;5013997;28;20044;-68
2022/01/18 13:05:13;;;;;;;401.48;143.65;;;;;;;12.60;100.00;99056.38;5025249;28;20132;-69
2022/01/18 13:08:06;;;;;;;387.17;143.30;;;;;;;12.63;100.00;99058.84;5011573;28;20053;-68
2022/01/18 13:10:54;;;;;;;420.27;149.95;;;;;;;12.69;100.00;99073.34;5021479;28;20057;-69
2022/01/18 13:13:55;;;;;;;402.45;146.05;;;;;;;12.53;100.00;99084.13;5022176;28;20135;-68
2022/01/18 13:23:08;;;;;;;505.17;154.63;;;;;;;12.48;100.00;99092.94;5025140;28;20536;-67
2022/01/18 13:25:59;;;;;;;499.45;158.00;;;;;;;12.45;100.00;99087.88;5023982;28;20045;-65
2022/01/18 13:28:49;;;;;;;462.77;150.88;;;;;;;12.36;100.00;99086.44;5023603;28;20427;-66
2022/01/18 13:31:31;;;;;;;474.08;151.10;;;;;;;12.44;100.00;99083.59;5024577;28;20073;-66